Carmen1 — HA3563 — position and weather

sailwx.info

Track history (hours):
 
Tides and Currents Weather Stations Pressure Air Temp Water Temp Dewpoint Dewpoint Depression Visibility Wind Speed Wind Dir Waves Ship Positions

Carmen1

Last reported at 2018-Jun-19 07:17 UTC. Time now 2018-Jun-20 02:11 UTC.
Position N 49°31' E 008°26'.

Length 110 m; draft 1.8 m.

Type: Passenger vessel. MMSI: 229736000.

Date/timePositionNaut miles runAvg speedWind from/ knotsBaromVisibWave heightAir tempDewpointWater temp
2018-Jun-19 07:17N 49°31' E 008°26'2 8.1
2018-Jun-19 07:01N 49°29' E 008°27'0 0.0
2018-Jun-19 06:30N 49°29' E 008°27'0 0.0
2018-Jun-19 06:01N 49°29' E 008°27'0 0.0
2018-Jun-19 05:31N 49°29' E 008°27'0 0.0
2018-Jun-19 05:00N 49°29' E 008°27'0 0.0
2018-Jun-19 04:31N 49°29' E 008°27'0 0.0
2018-Jun-19 04:00N 49°29' E 008°27'0 0.0
2018-Jun-19 03:29N 49°29' E 008°27'0 0.0
2018-Jun-19 03:01N 49°29' E 008°27'0 0.0
2018-Jun-19 02:31N 49°29' E 008°27'0 0.0
2018-Jun-19 02:00N 49°29' E 008°27'0 0.0
2018-Jun-19 01:30N 49°29' E 008°27'0 0.1
2018-Jun-19 01:01N 49°29' E 008°27'4 6.9
2018-Jun-19 00:30N 49°26' E 008°30'511.0
2018-Jun-19 00:00N 49°21' E 008°29'109 2.5
2018-Jun-17 05:12N 47°39' E 007°32'0 0.0
2018-Jun-17 05:00N 47°39' E 007°32'2 4.5
2018-Jun-17 04:30N 47°37' E 007°34'3 5.3
2018-Jun-17 03:58N 47°35' E 007°35'0 0.0
2018-Jun-17 03:30N 47°35' E 007°35'0 0.0
2018-Jun-17 03:00N 47°35' E 007°35'0 0.0
2018-Jun-17 02:29N 47°35' E 007°35'0 0.0
2018-Jun-17 02:00N 47°35' E 007°35'0 0.0
2018-Jun-17 01:30N 47°35' E 007°35'0 0.0
2018-Jun-17 01:00N 47°35' E 007°35'0 0.0
2018-Jun-17 00:30N 47°35' E 007°35'0 0.0
2018-Jun-17 00:00N 47°35' E 007°35'0 0.0
2018-Jun-16 23:29N 47°35' E 007°35'0 0.0
2018-Jun-16 22:59N 47°35' E 007°35'0 0.0
2018-Jun-16 22:29N 47°35' E 007°35'0 0.0
2018-Jun-16 22:00N 47°35' E 007°35'0 0.0
2018-Jun-16 21:30N 47°35' E 007°35'0 0.0
2018-Jun-16 21:00N 47°35' E 007°35'0 0.0
2018-Jun-16 20:30N 47°35' E 007°35'0 0.0
2018-Jun-16 20:00N 47°35' E 007°35'0 0.0
2018-Jun-16 19:30N 47°35' E 007°35'0 0.0
2018-Jun-16 19:00N 47°35' E 007°35'0 0.0
2018-Jun-16 18:30N 47°35' E 007°35'0 0.0
2018-Jun-16 18:00N 47°35' E 007°35'0 0.0
2018-Jun-16 17:30N 47°35' E 007°35'0 0.0
2018-Jun-16 17:00N 47°35' E 007°35'0 0.0
2018-Jun-16 16:30N 47°35' E 007°35'0 0.0
2018-Jun-16 16:00N 47°35' E 007°35'0 0.0
2018-Jun-16 15:30N 47°35' E 007°35'0 0.0
2018-Jun-16 06:54N 47°35' E 007°35'1 2.5
2018-Jun-16 06:30N 47°36' E 007°36'5 4.0
2018-Jun-16 05:20N 47°39' E 007°31'102 4.1
2018-Jun-15 04:10N 49°15' E 008°25'1 5.5
2018-Jun-15 04:00N 49°16' E 008°26'3 5.3
2018-Jun-15 03:29N 49°18' E 008°29'2 5.0
2018-Jun-15 03:00N 49°20' E 008°27'3 5.9
2018-Jun-15 02:30N 49°22' E 008°30'3 5.9
2018-Jun-15 02:00N 49°25' E 008°30'2 4.1
2018-Jun-15 01:30N 49°27' E 008°28'2 3.8
2018-Jun-15 01:00N 49°28' E 008°28'3 6.5
2018-Jun-15 00:30N 49°31' E 008°26'68 3.3
2018-Jun-14 03:53N 50°27' E 007°23'2 5.6
2018-Jun-14 03:30N 50°28' E 007°21'3 6.0
2018-Jun-14 03:00N 50°31' E 007°18'3 5.8
2018-Jun-14 02:30N 50°33' E 007°17'3 5.9
2018-Jun-14 02:00N 50°35' E 007°13'3 6.3
2018-Jun-14 01:30N 50°38' E 007°13'3 5.6
2018-Jun-14 01:00N 50°41' E 007°11'3 5.4
2018-Jun-14 00:30N 50°43' E 007°08'3 5.4
2018-Jun-14 00:00N 50°45' E 007°06'3 5.8
2018-Jun-13 23:30N 50°47' E 007°02'3 5.3
2018-Jun-13 23:00N 50°49' E 007°01'2 3.4
2018-Jun-13 22:30N 50°51' E 006°60'3 5.6
2018-Jun-13 22:00N 50°53' E 007°03'2 4.8
2018-Jun-13 21:31N 50°54' E 006°60'3 5.8
2018-Jun-13 21:00N 50°57' E 006°58'2 4.9
2018-Jun-13 20:30N 50°59' E 006°59'3 5.2
2018-Jun-13 20:00N 51°01' E 006°58'3 5.9
2018-Jun-13 19:30N 51°03' E 006°55'3 5.4
2018-Jun-13 19:00N 51°05' E 006°51'2 4.5
2018-Jun-13 18:30N 51°07' E 006°52'3 5.2
2018-Jun-13 18:00N 51°10' E 006°51'2 4.6
2018-Jun-13 17:30N 51°09' E 006°48'2 4.8
2018-Jun-13 17:00N 51°11' E 006°46'2 4.5
2018-Jun-13 16:30N 51°13' E 006°44'2 3.3
2018-Jun-13 16:00N 51°13' E 006°46'1 1.6
2018-Jun-13 15:30N 51°14' E 006°46'0 0.0
2018-Jun-13 15:00N 51°14' E 006°46'0 0.0
2018-Jun-13 14:30N 51°14' E 006°46'0 0.0
2018-Jun-13 14:00N 51°14' E 006°46'0 0.0
2018-Jun-13 13:30N 51°14' E 006°46'0 0.0
2018-Jun-13 13:00N 51°14' E 006°46'0 0.0
2018-Jun-13 12:30N 51°14' E 006°46'0 0.0
2018-Jun-13 11:58N 51°14' E 006°46'2 3.3
2018-Jun-13 11:30N 51°15' E 006°44'2 4.9
2018-Jun-13 11:00N 51°18' E 006°43'3 5.4
2018-Jun-13 10:30N 51°20' E 006°42'2 4.5
2018-Jun-13 10:00N 51°22' E 006°40'3 5.9
2018-Jun-13 09:30N 51°23' E 006°44'3 5.7
2018-Jun-13 09:00N 51°26' E 006°43'2 4.8
2018-Jun-13 08:30N 51°28' E 006°42'2 4.5
2018-Jun-13 08:00N 51°30' E 006°43'3 6.0
2018-Jun-13 07:30N 51°33' E 006°41'2 4.4
2018-Jun-13 07:00N 51°35' E 006°39'2 4.2
2018-Jun-13 06:30N 51°35' E 006°36'3 6.2
2018-Jun-13 06:00N 51°39' E 006°36'3 5.8
2018-Jun-13 05:30N 51°40' E 006°32'3 5.8
2018-Jun-13 04:58N 51°42' E 006°28'7 5.4
2018-Jun-13 03:42N 51°46' E 006°20'1 7.1
2018-Jun-13 03:30N 51°47' E 006°19'4 7.1
2018-Jun-13 02:59N 51°50' E 006°15'3 6.7
2018-Jun-13 02:30N 51°51' E 006°10'3 6.9
2018-Jun-13 02:00N 51°52' E 006°04'3 6.1
2018-Jun-13 01:29N 51°52' E 005°59'3 5.3
2018-Jun-13 00:52N 51°52' E 005°54'3 5.2
2018-Jun-13 00:23N 51°52' E 005°50'3 7.0
2018-Jun-13 00:00N 51°53' E 005°46'3 6.7
2018-Jun-12 23:30N 51°54' E 005°41'4 7.1
2018-Jun-12 22:55N 51°54' E 005°34'3 7.1
2018-Jun-12 22:30N 51°53' E 005°29'6 5.0
2018-Jun-12 21:23N 51°57' E 005°22'2 6.1
2018-Jun-12 21:00N 51°58' E 005°19'3 5.1
2018-Jun-12 20:30N 51°59' E 005°15'5 9.5
2018-Jun-12 19:59N 52°01' E 005°08'5 9.3
2018-Jun-12 19:28N 52°06' E 005°05'6 8.6
2018-Jun-12 18:46N 52°11' E 004°60'2 9.2
2018-Jun-12 18:30N 52°13' E 005°00'5 9.1
2018-Jun-12 18:00N 52°18' E 005°01'4 8.5
2018-Jun-12 17:31N 52°21' E 004°58'3 6.1
2018-Jun-12 17:00N 52°23' E 004°54'0 0.1
2018-Jun-12 16:30N 52°23' E 004°54'0 0.0
2018-Jun-12 16:00N 52°23' E 004°54'0 0.0
2018-Jun-12 15:30N 52°23' E 004°54'0 0.0
2018-Jun-12 15:00N 52°23' E 004°54'0 0.0
2018-Jun-12 14:30N 52°23' E 004°54'0 0.0
2018-Jun-12 14:00N 52°23' E 004°54'0 0.0
2018-Jun-12 13:30N 52°23' E 004°54'0 0.0
2018-Jun-12 13:00N 52°23' E 004°54'0 0.0
2018-Jun-12 12:30N 52°23' E 004°54'0 0.0
2018-Jun-12 12:00N 52°23' E 004°54'0 0.0
2018-Jun-12 11:30N 52°23' E 004°54'0 0.0
2018-Jun-12 11:00N 52°23' E 004°54'0 0.0
2018-Jun-12 10:30N 52°23' E 004°54'0 0.0
2018-Jun-12 10:00N 52°23' E 004°54'0 0.0
2018-Jun-12 09:30N 52°23' E 004°54'0 0.0
2018-Jun-12 09:00N 52°23' E 004°54'0 0.0
2018-Jun-12 08:30N 52°23' E 004°54'0 0.0
2018-Jun-12 08:00N 52°23' E 004°54'0 0.0
2018-Jun-12 07:30N 52°23' E 004°54'0 0.0
2018-Jun-12 07:00N 52°23' E 004°54'0 0.0
2018-Jun-12 06:30N 52°23' E 004°54'0 0.0
2018-Jun-12 06:00N 52°23' E 004°54'0 0.0
2018-Jun-12 05:30N 52°23' E 004°54'0 0.0
2018-Jun-12 05:00N 52°23' E 004°54'0 0.0
2018-Jun-12 04:30N 52°23' E 004°54'0 0.0
2018-Jun-12 04:00N 52°23' E 004°54'0 0.0
2018-Jun-12 03:30N 52°23' E 004°54'0 0.0
2018-Jun-12 03:00N 52°23' E 004°54'0 0.0
2018-Jun-12 02:30N 52°23' E 004°54'0 0.0
2018-Jun-12 02:00N 52°23' E 004°54'0 0.0
2018-Jun-12 01:30N 52°23' E 004°54'0 0.0
2018-Jun-12 01:00N 52°23' E 004°54'0 0.0
2018-Jun-12 00:30N 52°23' E 004°54'0 0.0
2018-Jun-12 00:01N 52°23' E 004°54'2 4.9
2018-Jun-11 23:31N 52°22' E 004°57'4 8.9
2018-Jun-11 23:00N 52°18' E 005°01'5 9.1
2018-Jun-11 22:28N 52°13' E 005°00'6 7.6
2018-Jun-11 21:41N 52°08' E 005°03'1 8.0
2018-Jun-11 21:30N 52°06' E 005°05'4 8.5
2018-Jun-11 21:00N 52°02' E 005°07'2 3.4
2018-Jun-11 20:30N 52°01' E 005°07'2 4.3
2018-Jun-11 20:00N 51°59' E 005°04'3 6.5
2018-Jun-11 19:30N 51°58' E 004°59'4 7.1
2018-Jun-11 19:00N 51°56' E 004°54'4 7.7
2018-Jun-11 18:30N 51°55' E 004°48'4 8.1
2018-Jun-11 18:00N 51°54' E 004°42'4 8.0
2018-Jun-11 17:30N 51°54' E 004°35'3 6.7
2018-Jun-11 17:01N 51°55' E 004°30'0 1.0
2018-Jun-11 16:30N 51°55' E 004°29'0 0.0
2018-Jun-11 16:00N 51°55' E 004°29'0 0.0
2018-Jun-11 15:30N 51°55' E 004°29'0 0.0
2018-Jun-11 15:00N 51°55' E 004°29'0 0.0
2018-Jun-11 14:30N 51°55' E 004°29'0 0.0
2018-Jun-11 14:00N 51°55' E 004°29'0 0.0
2018-Jun-11 13:30N 51°55' E 004°29'0 0.0
2018-Jun-11 13:00N 51°55' E 004°29'0 0.0
2018-Jun-11 12:30N 51°55' E 004°29'0 0.0
2018-Jun-11 12:00N 51°55' E 004°29'0 0.0
2018-Jun-11 11:30N 51°55' E 004°29'2 3.3
2018-Jun-11 11:00N 51°54' E 004°32'5 9.7
2018-Jun-11 10:30N 51°52' E 004°39'3 5.7
2018-Jun-11 10:01N 51°49' E 004°40'0 0.0
2018-Jun-11 09:31N 51°49' E 004°40'0 0.0
2018-Jun-11 09:00N 51°49' E 004°40'0 0.0
2018-Jun-11 08:31N 51°49' E 004°40'0 0.0
2018-Jun-11 08:00N 51°49' E 004°40'0 0.0
2018-Jun-11 07:30N 51°49' E 004°40'0 0.0
2018-Jun-11 07:01N 51°49' E 004°40'0 0.0
2018-Jun-11 06:30N 51°49' E 004°40'0 0.0
2018-Jun-11 06:01N 51°49' E 004°40'0 0.0
2018-Jun-11 05:30N 51°49' E 004°40'0 0.0
2018-Jun-11 05:00N 51°49' E 004°40'0 0.0
2018-Jun-11 04:31N 51°49' E 004°40'1 1.5
2018-Jun-11 04:00N 51°49' E 004°42'4 7.9
2018-Jun-11 03:30N 51°49' E 004°48'4 8.6
2018-Jun-11 03:00N 51°50' E 004°55'5 9.1
2018-Jun-11 02:31N 51°49' E 005°02'5 8.9
2018-Jun-11 01:59N 51°49' E 005°10'5 9.6
2018-Jun-11 01:31N 51°49' E 005°17'4 7.6
2018-Jun-11 01:00N 51°50' E 005°23'5 9.6
2018-Jun-11 00:29N 51°53' E 005°28'5 9.9
2018-Jun-11 00:00N 51°54' E 005°36'510.1
2018-Jun-10 23:28N 51°53' E 005°45'6 8.6
2018-Jun-10 22:49N 51°52' E 005°54'3 8.7
2018-Jun-10 22:31N 51°51' E 005°58'4 7.9
2018-Jun-10 22:01N 51°52' E 006°04'510.3
2018-Jun-10 21:31N 51°50' E 006°12'11 8.7
2018-Jun-10 20:12N 51°43' E 006°26'2 9.8
2018-Jun-10 20:00N 51°41' E 006°28'5 9.2
2018-Jun-10 19:31N 51°40' E 006°35'5 9.5
2018-Jun-10 19:01N 51°35' E 006°36'4 7.2
2018-Jun-10 18:30N 51°33' E 006°41'4 7.5
2018-Jun-10 18:00N 51°29' E 006°41'4 8.1
2018-Jun-10 17:30N 51°26' E 006°43'4 8.3
2018-Jun-10 17:01N 51°22' E 006°40'4 8.7
2018-Jun-10 16:30N 51°18' E 006°44'4 8.1
2018-Jun-10 16:00N 51°15' E 006°46'4 7.3
2018-Jun-10 15:30N 51°11' E 006°44'4 7.9
2018-Jun-10 15:00N 51°09' E 006°49'7 6.6
2018-Jun-10 14:00N 51°03' E 006°55'5 9.9
2018-Jun-10 13:30N 50°59' E 006°59'4 8.5
2018-Jun-10 13:00N 50°55' E 006°59'3 6.7
2018-Jun-10 12:30N 50°52' E 007°01'4 7.1
2018-Jun-10 12:00N 50°48' E 007°02'510.2
2018-Jun-10 11:30N 50°44' E 007°07'0 1.0
2018-Jun-10 11:00N 50°44' E 007°07'0 0.0
2018-Jun-10 10:30N 50°44' E 007°07'0 0.0
2018-Jun-10 10:00N 50°44' E 007°07'0 0.0
2018-Jun-10 09:30N 50°44' E 007°07'0 0.0
2018-Jun-10 09:00N 50°44' E 007°07'0 0.0
2018-Jun-10 08:30N 50°44' E 007°07'0 0.0
2018-Jun-10 08:00N 50°44' E 007°07'0 0.0
2018-Jun-10 07:30N 50°44' E 007°07'0 0.0
2018-Jun-10 07:00N 50°44' E 007°07'0 0.0
2018-Jun-10 06:30N 50°44' E 007°07'0 0.1
2018-Jun-10 06:00N 50°44' E 007°07'5 9.9
2018-Jun-10 05:30N 50°40' E 007°12'510.6
2018-Jun-10 05:00N 50°35' E 007°14'611.1
2018-Jun-10 04:30N 50°30' E 007°19'71 7.8
2018-Jun-09 19:23N 49°34' E 008°25'411.0
2018-Jun-09 19:00N 49°30' E 008°27'4 7.3
2018-Jun-09 18:30N 49°27' E 008°30'510.5
2018-Jun-09 18:00N 49°21' E 008°29'4 8.4
2018-Jun-09 17:30N 49°17' E 008°29'  
Track history (hours):
 
Tides and Currents Weather Stations Pressure Air Temp Water Temp Dewpoint Dewpoint Depression Visibility Wind Speed Wind Dir Waves Ship Positions

Carmen1

Last reported at 2018-Jun-19 07:17 UTC. Time now 2018-Jun-20 02:11 UTC.
Position N 49°31' E 008°26'.

Length 110 m; draft 1.8 m.

Type: Passenger vessel. MMSI: 229736000.

Date/timePositionNaut miles runAvg speedWind from/ knotsBaromVisibWave heightAir tempDewpointWater temp
2018-Jun-19 07:17N 49°31' E 008°26'2 8.1
2018-Jun-19 07:01N 49°29' E 008°27'0 0.0
2018-Jun-19 06:30N 49°29' E 008°27'0 0.0
2018-Jun-19 06:01N 49°29' E 008°27'0 0.0
2018-Jun-19 05:31N 49°29' E 008°27'0 0.0
2018-Jun-19 05:00N 49°29' E 008°27'0 0.0
2018-Jun-19 04:31N 49°29' E 008°27'0 0.0
2018-Jun-19 04:00N 49°29' E 008°27'0 0.0
2018-Jun-19 03:29N 49°29' E 008°27'0 0.0
2018-Jun-19 03:01N 49°29' E 008°27'0 0.0
2018-Jun-19 02:31N 49°29' E 008°27'0 0.0
2018-Jun-19 02:00N 49°29' E 008°27'0 0.0
2018-Jun-19 01:30N 49°29' E 008°27'0 0.1
2018-Jun-19 01:01N 49°29' E 008°27'4 6.9
2018-Jun-19 00:30N 49°26' E 008°30'511.0
2018-Jun-19 00:00N 49°21' E 008°29'109 2.5
2018-Jun-17 05:12N 47°39' E 007°32'0 0.0
2018-Jun-17 05:00N 47°39' E 007°32'2 4.5
2018-Jun-17 04:30N 47°37' E 007°34'3 5.3
2018-Jun-17 03:58N 47°35' E 007°35'0 0.0
2018-Jun-17 03:30N 47°35' E 007°35'0 0.0
2018-Jun-17 03:00N 47°35' E 007°35'0 0.0
2018-Jun-17 02:29N 47°35' E 007°35'0 0.0
2018-Jun-17 02:00N 47°35' E 007°35'0 0.0
2018-Jun-17 01:30N 47°35' E 007°35'0 0.0
2018-Jun-17 01:00N 47°35' E 007°35'0 0.0
2018-Jun-17 00:30N 47°35' E 007°35'0 0.0
2018-Jun-17 00:00N 47°35' E 007°35'0 0.0
2018-Jun-16 23:29N 47°35' E 007°35'0 0.0
2018-Jun-16 22:59N 47°35' E 007°35'0 0.0
2018-Jun-16 22:29N 47°35' E 007°35'0 0.0
2018-Jun-16 22:00N 47°35' E 007°35'0 0.0
2018-Jun-16 21:30N 47°35' E 007°35'0 0.0
2018-Jun-16 21:00N 47°35' E 007°35'0 0.0
2018-Jun-16 20:30N 47°35' E 007°35'0 0.0
2018-Jun-16 20:00N 47°35' E 007°35'0 0.0
2018-Jun-16 19:30N 47°35' E 007°35'0 0.0
2018-Jun-16 19:00N 47°35' E 007°35'0 0.0
2018-Jun-16 18:30N 47°35' E 007°35'0 0.0
2018-Jun-16 18:00N 47°35' E 007°35'0 0.0
2018-Jun-16 17:30N 47°35' E 007°35'0 0.0
2018-Jun-16 17:00N 47°35' E 007°35'0 0.0
2018-Jun-16 16:30N 47°35' E 007°35'0 0.0
2018-Jun-16 16:00N 47°35' E 007°35'0 0.0
2018-Jun-16 15:30N 47°35' E 007°35'0 0.0
2018-Jun-16 06:54N 47°35' E 007°35'1 2.5
2018-Jun-16 06:30N 47°36' E 007°36'5 4.0
2018-Jun-16 05:20N 47°39' E 007°31'102 4.1
2018-Jun-15 04:10N 49°15' E 008°25'1 5.5
2018-Jun-15 04:00N 49°16' E 008°26'3 5.3
2018-Jun-15 03:29N 49°18' E 008°29'2 5.0
2018-Jun-15 03:00N 49°20' E 008°27'3 5.9
2018-Jun-15 02:30N 49°22' E 008°30'3 5.9
2018-Jun-15 02:00N 49°25' E 008°30'2 4.1
2018-Jun-15 01:30N 49°27' E 008°28'2 3.8
2018-Jun-15 01:00N 49°28' E 008°28'3 6.5
2018-Jun-15 00:30N 49°31' E 008°26'68 3.3
2018-Jun-14 03:53N 50°27' E 007°23'2 5.6
2018-Jun-14 03:30N 50°28' E 007°21'3 6.0
2018-Jun-14 03:00N 50°31' E 007°18'3 5.8
2018-Jun-14 02:30N 50°33' E 007°17'3 5.9
2018-Jun-14 02:00N 50°35' E 007°13'3 6.3
2018-Jun-14 01:30N 50°38' E 007°13'3 5.6
2018-Jun-14 01:00N 50°41' E 007°11'3 5.4
2018-Jun-14 00:30N 50°43' E 007°08'3 5.4
2018-Jun-14 00:00N 50°45' E 007°06'3 5.8
2018-Jun-13 23:30N 50°47' E 007°02'3 5.3
2018-Jun-13 23:00N 50°49' E 007°01'2 3.4
2018-Jun-13 22:30N 50°51' E 006°60'3 5.6
2018-Jun-13 22:00N 50°53' E 007°03'2 4.8
2018-Jun-13 21:31N 50°54' E 006°60'3 5.8
2018-Jun-13 21:00N 50°57' E 006°58'2 4.9
2018-Jun-13 20:30N 50°59' E 006°59'3 5.2
2018-Jun-13 20:00N 51°01' E 006°58'3 5.9
2018-Jun-13 19:30N 51°03' E 006°55'3 5.4
2018-Jun-13 19:00N 51°05' E 006°51'2 4.5
2018-Jun-13 18:30N 51°07' E 006°52'3 5.2
2018-Jun-13 18:00N 51°10' E 006°51'2 4.6
2018-Jun-13 17:30N 51°09' E 006°48'2 4.8
2018-Jun-13 17:00N 51°11' E 006°46'2 4.5
2018-Jun-13 16:30N 51°13' E 006°44'2 3.3
2018-Jun-13 16:00N 51°13' E 006°46'1 1.6
2018-Jun-13 15:30N 51°14' E 006°46'0 0.0
2018-Jun-13 15:00N 51°14' E 006°46'0 0.0
2018-Jun-13 14:30N 51°14' E 006°46'0 0.0
2018-Jun-13 14:00N 51°14' E 006°46'0 0.0
2018-Jun-13 13:30N 51°14' E 006°46'0 0.0
2018-Jun-13 13:00N 51°14' E 006°46'0 0.0
2018-Jun-13 12:30N 51°14' E 006°46'0 0.0
2018-Jun-13 11:58N 51°14' E 006°46'2 3.3
2018-Jun-13 11:30N 51°15' E 006°44'2 4.9
2018-Jun-13 11:00N 51°18' E 006°43'3 5.4
2018-Jun-13 10:30N 51°20' E 006°42'2 4.5
2018-Jun-13 10:00N 51°22' E 006°40'3 5.9
2018-Jun-13 09:30N 51°23' E 006°44'3 5.7
2018-Jun-13 09:00N 51°26' E 006°43'2 4.8
2018-Jun-13 08:30N 51°28' E 006°42'2 4.5
2018-Jun-13 08:00N 51°30' E 006°43'3 6.0
2018-Jun-13 07:30N 51°33' E 006°41'2 4.4
2018-Jun-13 07:00N 51°35' E 006°39'2 4.2
2018-Jun-13 06:30N 51°35' E 006°36'3 6.2
2018-Jun-13 06:00N 51°39' E 006°36'3 5.8
2018-Jun-13 05:30N 51°40' E 006°32'3 5.8
2018-Jun-13 04:58N 51°42' E 006°28'7 5.4
2018-Jun-13 03:42N 51°46' E 006°20'1 7.1
2018-Jun-13 03:30N 51°47' E 006°19'4 7.1
2018-Jun-13 02:59N 51°50' E 006°15'3 6.7
2018-Jun-13 02:30N 51°51' E 006°10'3 6.9
2018-Jun-13 02:00N 51°52' E 006°04'3 6.1
2018-Jun-13 01:29N 51°52' E 005°59'3 5.3
2018-Jun-13 00:52N 51°52' E 005°54'3 5.2
2018-Jun-13 00:23N 51°52' E 005°50'3 7.0
2018-Jun-13 00:00N 51°53' E 005°46'3 6.7
2018-Jun-12 23:30N 51°54' E 005°41'4 7.1
2018-Jun-12 22:55N 51°54' E 005°34'3 7.1
2018-Jun-12 22:30N 51°53' E 005°29'6 5.0
2018-Jun-12 21:23N 51°57' E 005°22'2 6.1
2018-Jun-12 21:00N 51°58' E 005°19'3 5.1
2018-Jun-12 20:30N 51°59' E 005°15'5 9.5
2018-Jun-12 19:59N 52°01' E 005°08'5 9.3
2018-Jun-12 19:28N 52°06' E 005°05'6 8.6
2018-Jun-12 18:46N 52°11' E 004°60'2 9.2
2018-Jun-12 18:30N 52°13' E 005°00'5 9.1
2018-Jun-12 18:00N 52°18' E 005°01'4 8.5
2018-Jun-12 17:31N 52°21' E 004°58'3 6.1
2018-Jun-12 17:00N 52°23' E 004°54'0 0.1
2018-Jun-12 16:30N 52°23' E 004°54'0 0.0
2018-Jun-12 16:00N 52°23' E 004°54'0 0.0
2018-Jun-12 15:30N 52°23' E 004°54'0 0.0
2018-Jun-12 15:00N 52°23' E 004°54'0 0.0
2018-Jun-12 14:30N 52°23' E 004°54'0 0.0
2018-Jun-12 14:00N 52°23' E 004°54'0 0.0
2018-Jun-12 13:30N 52°23' E 004°54'0 0.0
2018-Jun-12 13:00N 52°23' E 004°54'0 0.0
2018-Jun-12 12:30N 52°23' E 004°54'0 0.0
2018-Jun-12 12:00N 52°23' E 004°54'0 0.0
2018-Jun-12 11:30N 52°23' E 004°54'0 0.0
2018-Jun-12 11:00N 52°23' E 004°54'0 0.0
2018-Jun-12 10:30N 52°23' E 004°54'0 0.0
2018-Jun-12 10:00N 52°23' E 004°54'0 0.0
2018-Jun-12 09:30N 52°23' E 004°54'0 0.0
2018-Jun-12 09:00N 52°23' E 004°54'0 0.0
2018-Jun-12 08:30N 52°23' E 004°54'0 0.0
2018-Jun-12 08:00N 52°23' E 004°54'0 0.0
2018-Jun-12 07:30N 52°23' E 004°54'0 0.0
2018-Jun-12 07:00N 52°23' E 004°54'0 0.0
2018-Jun-12 06:30N 52°23' E 004°54'0 0.0
2018-Jun-12 06:00N 52°23' E 004°54'0 0.0
2018-Jun-12 05:30N 52°23' E 004°54'0 0.0
2018-Jun-12 05:00N 52°23' E 004°54'0 0.0
2018-Jun-12 04:30N 52°23' E 004°54'0 0.0
2018-Jun-12 04:00N 52°23' E 004°54'0 0.0
2018-Jun-12 03:30N 52°23' E 004°54'0 0.0
2018-Jun-12 03:00N 52°23' E 004°54'0 0.0
2018-Jun-12 02:30N 52°23' E 004°54'0 0.0
2018-Jun-12 02:00N 52°23' E 004°54'0 0.0
2018-Jun-12 01:30N 52°23' E 004°54'0 0.0
2018-Jun-12 01:00N 52°23' E 004°54'0 0.0
2018-Jun-12 00:30N 52°23' E 004°54'0 0.0
2018-Jun-12 00:01N 52°23' E 004°54'2 4.9
2018-Jun-11 23:31N 52°22' E 004°57'4 8.9
2018-Jun-11 23:00N 52°18' E 005°01'5 9.1
2018-Jun-11 22:28N 52°13' E 005°00'6 7.6
2018-Jun-11 21:41N 52°08' E 005°03'1 8.0
2018-Jun-11 21:30N 52°06' E 005°05'4 8.5
2018-Jun-11 21:00N 52°02' E 005°07'2 3.4
2018-Jun-11 20:30N 52°01' E 005°07'2 4.3
2018-Jun-11 20:00N 51°59' E 005°04'3 6.5
2018-Jun-11 19:30N 51°58' E 004°59'4 7.1
2018-Jun-11 19:00N 51°56' E 004°54'4 7.7
2018-Jun-11 18:30N 51°55' E 004°48'4 8.1
2018-Jun-11 18:00N 51°54' E 004°42'4 8.0
2018-Jun-11 17:30N 51°54' E 004°35'3 6.7
2018-Jun-11 17:01N 51°55' E 004°30'0 1.0
2018-Jun-11 16:30N 51°55' E 004°29'0 0.0
2018-Jun-11 16:00N 51°55' E 004°29'0 0.0
2018-Jun-11 15:30N 51°55' E 004°29'0 0.0
2018-Jun-11 15:00N 51°55' E 004°29'0 0.0
2018-Jun-11 14:30N 51°55' E 004°29'0 0.0
2018-Jun-11 14:00N 51°55' E 004°29'0 0.0
2018-Jun-11 13:30N 51°55' E 004°29'0 0.0
2018-Jun-11 13:00N 51°55' E 004°29'0 0.0
2018-Jun-11 12:30N 51°55' E 004°29'0 0.0
2018-Jun-11 12:00N 51°55' E 004°29'0 0.0
2018-Jun-11 11:30N 51°55' E 004°29'2 3.3
2018-Jun-11 11:00N 51°54' E 004°32'5 9.7
2018-Jun-11 10:30N 51°52' E 004°39'3 5.7
2018-Jun-11 10:01N 51°49' E 004°40'0 0.0
2018-Jun-11 09:31N 51°49' E 004°40'0 0.0
2018-Jun-11 09:00N 51°49' E 004°40'0 0.0
2018-Jun-11 08:31N 51°49' E 004°40'0 0.0
2018-Jun-11 08:00N 51°49' E 004°40'0 0.0
2018-Jun-11 07:30N 51°49' E 004°40'0 0.0
2018-Jun-11 07:01N 51°49' E 004°40'0 0.0
2018-Jun-11 06:30N 51°49' E 004°40'0 0.0
2018-Jun-11 06:01N 51°49' E 004°40'0 0.0
2018-Jun-11 05:30N 51°49' E 004°40'0 0.0
2018-Jun-11 05:00N 51°49' E 004°40'0 0.0
2018-Jun-11 04:31N 51°49' E 004°40'1 1.5
2018-Jun-11 04:00N 51°49' E 004°42'4 7.9
2018-Jun-11 03:30N 51°49' E 004°48'4 8.6
2018-Jun-11 03:00N 51°50' E 004°55'5 9.1
2018-Jun-11 02:31N 51°49' E 005°02'5 8.9
2018-Jun-11 01:59N 51°49' E 005°10'5 9.6
2018-Jun-11 01:31N 51°49' E 005°17'4 7.6
2018-Jun-11 01:00N 51°50' E 005°23'5 9.6
2018-Jun-11 00:29N 51°53' E 005°28'5 9.9
2018-Jun-11 00:00N 51°54' E 005°36'510.1
2018-Jun-10 23:28N 51°53' E 005°45'6 8.6
2018-Jun-10 22:49N 51°52' E 005°54'3 8.7
2018-Jun-10 22:31N 51°51' E 005°58'4 7.9
2018-Jun-10 22:01N 51°52' E 006°04'510.3
2018-Jun-10 21:31N 51°50' E 006°12'11 8.7
2018-Jun-10 20:12N 51°43' E 006°26'2 9.8
2018-Jun-10 20:00N 51°41' E 006°28'5 9.2
2018-Jun-10 19:31N 51°40' E 006°35'5 9.5
2018-Jun-10 19:01N 51°35' E 006°36'4 7.2
2018-Jun-10 18:30N 51°33' E 006°41'4 7.5
2018-Jun-10 18:00N 51°29' E 006°41'4 8.1
2018-Jun-10 17:30N 51°26' E 006°43'4 8.3
2018-Jun-10 17:01N 51°22' E 006°40'4 8.7
2018-Jun-10 16:30N 51°18' E 006°44'4 8.1
2018-Jun-10 16:00N 51°15' E 006°46'4 7.3
2018-Jun-10 15:30N 51°11' E 006°44'4 7.9
2018-Jun-10 15:00N 51°09' E 006°49'7 6.6
2018-Jun-10 14:00N 51°03' E 006°55'5 9.9
2018-Jun-10 13:30N 50°59' E 006°59'4 8.5
2018-Jun-10 13:00N 50°55' E 006°59'3 6.7
2018-Jun-10 12:30N 50°52' E 007°01'4 7.1
2018-Jun-10 12:00N 50°48' E 007°02'510.2
2018-Jun-10 11:30N 50°44' E 007°07'0 1.0
2018-Jun-10 11:00N 50°44' E 007°07'0 0.0
2018-Jun-10 10:30N 50°44' E 007°07'0 0.0
2018-Jun-10 10:00N 50°44' E 007°07'0 0.0
2018-Jun-10 09:30N 50°44' E 007°07'0 0.0
2018-Jun-10 09:00N 50°44' E 007°07'0 0.0
2018-Jun-10 08:30N 50°44' E 007°07'0 0.0
2018-Jun-10 08:00N 50°44' E 007°07'0 0.0
2018-Jun-10 07:30N 50°44' E 007°07'0 0.0
2018-Jun-10 07:00N 50°44' E 007°07'0 0.0
2018-Jun-10 06:30N 50°44' E 007°07'0 0.1
2018-Jun-10 06:00N 50°44' E 007°07'5 9.9
2018-Jun-10 05:30N 50°40' E 007°12'510.6
2018-Jun-10 05:00N 50°35' E 007°14'611.1
2018-Jun-10 04:30N 50°30' E 007°19'71 7.8
2018-Jun-09 19:23N 49°34' E 008°25'411.0
2018-Jun-09 19:00N 49°30' E 008°27'4 7.3
2018-Jun-09 18:30N 49°27' E 008°30'510.5
2018-Jun-09 18:00N 49°21' E 008°29'4 8.4
2018-Jun-09 17:30N 49°17' E 008°29'  

Dump ship's entire track history